Time;durP1;ratioP1;P1;durP2;ratioP2;P2;SDS_P1;SDS_P2;PMS_P1;PMS_P2;Temp;Humidity;BMP_temperature;BMP_pressure;BME280_temperature;BME280_humidity;BME280_pressure;Samples;Min_cycle;Max_cycle;Signal;HPM_P1;HPM_P2
2021/06/24 00:00:37;;;;;;;0.10;0.10;;;;;;;;;;4897162;29;20071;-85
2021/06/24 00:03:03;;;;;;;0.10;0.10;;;;;;;;;;4897048;29;20043;-86
2021/06/24 00:05:30;;;;;;;0.10;0.10;;;;;;;;;;4897124;29;20076;-86
2021/06/24 00:07:56;;;;;;;0.10;0.10;;;;;;;;;;4897057;29;20041;-85
2021/06/24 00:10:22;;;;;;;0.10;0.10;;;;;;;;;;4911518;29;20040;-85
2021/06/24 00:12:49;;;;;;;0.10;0.10;;;;;;;;;;4897035;29;20046;-85
2021/06/24 00:15:15;;;;;;;0.10;0.10;;;;;;;;;;4911497;29;20124;-86
2021/06/24 00:17:42;;;;;;;0.10;0.10;;;;;;;;;;4911222;29;20055;-85
2021/06/24 00:20:08;;;;;;;0.10;0.10;;;;;;;;;;4895843;29;20045;-85
2021/06/24 00:22:34;;;;;;;0.10;0.10;;;;;;;;;;4911405;29;20043;-86
2021/06/24 00:25:01;;;;;;;0.10;0.10;;;;;;;;;;4911375;29;20040;-85
2021/06/24 00:27:29;;;;;;;0.38;0.30;;;;;;;;;;4895612;29;20056;-85
2021/06/24 00:29:55;;;;;;;0.10;0.10;;;;;;;;;;4911285;29;20502;-85
2021/06/24 00:32:21;;;;;;;0.10;0.10;;;;;;;;;;4896859;29;20049;-86
2021/06/24 00:34:47;;;;;;;0.10;0.10;;;;;;;;;;4911363;29;20475;-86
2021/06/24 00:37:13;;;;;;;0.13;0.13;;;;;;;;;;4879894;29;20049;-85
2021/06/24 00:39:39;;;;;;;0.10;0.10;;;;;;;;;;4896818;29;20554;-86
2021/06/24 00:42:05;;;;;;;0.10;0.10;;;;;;;;;;4896879;29;20123;-86
2021/06/24 00:44:32;;;;;;;0.10;0.10;;;;;;;;;;4910972;29;20056;-86
2021/06/24 00:46:59;;;;;;;0.10;0.10;;;;;;;;;;4896767;29;20040;-86
2021/06/24 00:49:25;;;;;;;0.10;0.10;;;;;;;;;;4895742;29;20128;-86
2021/06/24 00:51:51;;;;;;;0.10;0.10;;;;;;;;;;4895688;29;20049;-85
2021/06/24 00:54:17;;;;;;;0.10;0.10;;;;;;;;;;4911208;29;20045;-85
2021/06/24 00:56:43;;;;;;;0.10;0.10;;;;;;;;;;4911037;29;20510;-85
2021/06/24 00:59:09;;;;;;;0.10;0.10;;;;;;;;;;4898980;29;20047;-85
2021/06/24 01:01:36;;;;;;;0.10;0.10;;;;;;;;;;4914752;29;20040;-85
2021/06/24 01:04:02;;;;;;;0.10;0.10;;;;;;;;;;4914579;29;20041;-85
2021/06/24 01:06:28;;;;;;;0.10;0.10;;;;;;;;;;4900114;29;20051;-86
2021/06/24 01:08:54;;;;;;;0.20;0.20;;;;;;;;;;4914671;29;20067;-85
2021/06/24 01:11:21;;;;;;;0.10;0.10;;;;;;;;;;4899218;29;20052;-85
2021/06/24 01:13:48;;;;;;;0.13;0.13;;;;;;;;;;4914574;29;20561;-85
2021/06/24 01:16:14;;;;;;;0.10;0.10;;;;;;;;;;4914453;29;20430;-85
2021/06/24 01:18:40;;;;;;;0.10;0.10;;;;;;;;;;4914256;29;20056;-85
2021/06/24 01:21:06;;;;;;;0.10;0.10;;;;;;;;;;4914475;29;20041;-84
2021/06/24 01:23:39;;;;;;;0.10;0.10;;;;;;;;;;4899863;29;20041;-84
2021/06/24 01:26:05;;;;;;;0.10;0.10;;;;;;;;;;4914293;29;20455;-85
2021/06/24 01:28:32;;;;;;;0.10;0.10;;;;;;;;;;4914321;29;20044;-84
2021/06/24 01:30:58;;;;;;;0.10;0.10;;;;;;;;;;4899735;29;20037;-86
2021/06/24 01:33:25;;;;;;;0.10;0.10;;;;;;;;;;4898580;29;20072;-85
2021/06/24 01:35:56;;;;;;;0.10;0.10;;;;;;;;;;4914167;29;20040;-85
2021/06/24 01:38:22;;;;;;;0.10;0.10;;;;;;;;;;4898580;29;20063;-85
2021/06/24 01:40:49;;;;;;;0.10;0.10;;;;;;;;;;4898568;29;20109;-85
2021/06/24 01:43:15;;;;;;;0.10;0.10;;;;;;;;;;4898420;29;20044;-85
2021/06/24 01:45:48;;;;;;;0.10;0.10;;;;;;;;;;4913987;29;20048;-83
2021/06/24 01:48:14;;;;;;;0.10;0.10;;;;;;;;;;4913926;29;20041;-85
2021/06/24 01:50:40;;;;;;;0.10;0.10;;;;;;;;;;4899519;29;20037;-85
2021/06/24 01:53:06;;;;;;;0.10;0.10;;;;;;;;;;4913757;29;20044;-85
2021/06/24 01:55:33;;;;;;;0.20;0.20;;;;;;;;;;4913711;29;20055;-85
2021/06/24 01:58:00;;;;;;;0.10;0.10;;;;;;;;;;4898106;29;20574;-85
2021/06/24 02:00:26;;;;;;;0.10;0.10;;;;;;;;;;4913738;29;20048;-84
2021/06/24 02:02:52;;;;;;;0.10;0.10;;;;;;;;;;4898158;29;20083;-85
2021/06/24 02:05:18;;;;;;;0.20;0.20;;;;;;;;;;4899179;29;20053;-84
2021/06/24 02:07:44;;;;;;;0.10;0.10;;;;;;;;;;4898939;29;20036;-84
2021/06/24 02:10:10;;;;;;;0.20;0.20;;;;;;;;;;4897847;29;20040;-85
2021/06/24 02:12:37;;;;;;;0.20;0.20;;;;;;;;;;4913580;29;20048;-85
2021/06/24 02:15:10;;;;;;;0.10;0.10;;;;;;;;;;4897705;29;20076;-85
2021/06/24 02:17:36;;;;;;;0.10;0.10;;;;;;;;;;4913111;29;20056;-86
2021/06/24 02:20:03;;;;;;;0.20;0.20;;;;;;;;;;4897693;29;20055;-85
2021/06/24 02:22:29;;;;;;;0.10;0.10;;;;;;;;;;4897615;29;20044;-85
2021/06/24 02:24:55;;;;;;;0.10;0.10;;;;;;;;;;4882128;29;20048;-85
2021/06/24 02:27:21;;;;;;;0.10;0.10;;;;;;;;;;4913231;29;20048;-85
2021/06/24 02:29:49;;;;;;;0.10;0.10;;;;;;;;;;4898755;29;20463;-85
2021/06/24 02:32:15;;;;;;;0.10;0.10;;;;;;;;;;4898671;29;20044;-85
2021/06/24 02:34:42;;;;;;;0.10;0.10;;;;;;;;;;4897421;29;20036;-85
2021/06/24 02:37:09;;;;;;;0.10;0.10;;;;;;;;;;4897259;29;20056;-85
2021/06/24 02:39:36;;;;;;;0.10;0.10;;;;;;;;;;4897499;29;20077;-85
2021/06/24 02:42:02;;;;;;;0.10;0.10;;;;;;;;;;4897465;29;20045;-86
2021/06/24 02:44:28;;;;;;;0.10;0.10;;;;;;;;;;4897651;29;20076;-85
2021/06/24 02:46:54;;;;;;;0.10;0.10;;;;;;;;;;4912972;29;20454;-86
2021/06/24 02:49:20;;;;;;;0.10;0.10;;;;;;;;;;4912849;29;20410;-85
2021/06/24 02:51:47;;;;;;;0.10;0.10;;;;;;;;;;4912701;29;20041;-85
2021/06/24 02:54:13;;;;;;;0.10;0.10;;;;;;;;;;4896954;29;20045;-85
2021/06/24 02:56:39;;;;;;;0.10;0.10;;;;;;;;;;4898098;29;20487;-85
2021/06/24 02:59:06;;;;;;;0.20;0.20;;;;;;;;;;4912697;29;20052;-85
2021/06/24 03:01:32;;;;;;;0.13;0.13;;;;;;;;;;4912612;29;20045;-85
2021/06/24 03:03:58;;;;;;;0.10;0.10;;;;;;;;;;4896981;29;20455;-84
2021/06/24 03:06:24;;;;;;;0.10;0.10;;;;;;;;;;4896242;29;20048;-84
2021/06/24 03:08:50;;;;;;;0.10;0.10;;;;;;;;;;4911341;29;20040;-84
2021/06/24 03:11:16;;;;;;;0.10;0.10;;;;;;;;;;4911610;29;20044;-84
2021/06/24 03:13:42;;;;;;;0.10;0.10;;;;;;;;;;4895897;29;20052;-84
2021/06/24 03:16:08;;;;;;;0.10;0.10;;;;;;;;;;4911559;29;20451;-85
2021/06/24 03:18:34;;;;;;;0.10;0.10;;;;;;;;;;4911152;29;20056;-85
2021/06/24 03:21:00;;;;;;;0.10;0.10;;;;;;;;;;4895239;29;20127;-85
2021/06/24 03:23:26;;;;;;;0.10;0.10;;;;;;;;;;4911535;29;20530;-85
2021/06/24 03:25:54;;;;;;;0.10;0.10;;;;;;;;;;4911418;29;20059;-85
2021/06/24 03:28:20;;;;;;;0.20;0.20;;;;;;;;;;4895640;29;20049;-85
2021/06/24 03:30:47;;;;;;;0.10;0.10;;;;;;;;;;4895803;29;20112;-85
2021/06/24 03:33:14;;;;;;;0.10;0.10;;;;;;;;;;4895692;29;20047;-85
2021/06/24 03:35:40;;;;;;;0.10;0.10;;;;;;;;;;4911309;29;20394;-85
2021/06/24 03:38:06;;;;;;;0.10;0.10;;;;;;;;;;4911201;29;20468;-84
2021/06/24 03:40:32;;;;;;;0.10;0.10;;;;;;;;;;4896713;29;20097;-84
2021/06/24 03:42:58;;;;;;;0.10;0.10;;;;;;;;;;4895690;29;20048;-84
2021/06/24 03:45:25;;;;;;;0.10;0.10;;;;;;;;;;4896854;29;20048;-85
2021/06/24 03:47:51;;;;;;;0.28;0.20;;;;;;;;;;4896555;29;20044;-84
2021/06/24 03:50:17;;;;;;;0.20;0.20;;;;;;;;;;4896714;29;20037;-85
2021/06/24 03:52:43;;;;;;;0.10;0.10;;;;;;;;;;4895351;29;20037;-85
2021/06/24 03:55:10;;;;;;;0.10;0.10;;;;;;;;;;4895383;29;20041;-85
2021/06/24 03:57:36;;;;;;;0.10;0.10;;;;;;;;;;4910968;29;20447;-85
2021/06/24 04:00:02;;;;;;;0.20;0.20;;;;;;;;;;4896823;29;20067;-85
2021/06/24 04:02:29;;;;;;;0.10;0.10;;;;;;;;;;4910839;29;20041;-85
2021/06/24 04:04:55;;;;;;;0.10;0.10;;;;;;;;;;4895229;29;20394;-84
2021/06/24 04:07:22;;;;;;;0.10;0.10;;;;;;;;;;4896408;29;20498;-84
2021/06/24 04:09:48;;;;;;;0.10;0.10;;;;;;;;;;4895220;29;20044;-84
2021/06/24 04:12:14;;;;;;;0.10;0.10;;;;;;;;;;4910998;29;20040;-85
2021/06/24 04:14:40;;;;;;;0.10;0.10;;;;;;;;;;4910750;29;20088;-85
2021/06/24 04:17:07;;;;;;;0.10;0.10;;;;;;;;;;4910738;29;20040;-85
2021/06/24 04:19:33;;;;;;;0.10;0.10;;;;;;;;;;4910933;29;20268;-85
2021/06/24 04:21:59;;;;;;;0.10;0.10;;;;;;;;;;4895399;29;20079;-85
2021/06/24 04:24:25;;;;;;;0.20;0.20;;;;;;;;;;4895158;29;20040;-85
2021/06/24 04:26:51;;;;;;;0.20;0.20;;;;;;;;;;4896542;29;20482;-86
2021/06/24 04:29:17;;;;;;;0.10;0.10;;;;;;;;;;4896436;29;20048;-86
2021/06/24 04:31:44;;;;;;;0.10;0.10;;;;;;;;;;4912061;29;20091;-85
2021/06/24 04:34:11;;;;;;;0.25;0.25;;;;;;;;;;4914563;29;20040;-86
2021/06/24 04:36:43;;;;;;;0.10;0.10;;;;;;;;;;4914480;29;20080;-86
2021/06/24 04:39:11;;;;;;;0.20;0.20;;;;;;;;;;4913748;29;20037;-86
2021/06/24 04:41:37;;;;;;;0.10;0.10;;;;;;;;;;4898878;29;20061;-85
2021/06/24 04:44:03;;;;;;;0.10;0.10;;;;;;;;;;4899262;29;20041;-85
2021/06/24 04:46:30;;;;;;;0.10;0.10;;;;;;;;;;4900580;29;20479;-85
2021/06/24 04:48:56;;;;;;;0.10;0.10;;;;;;;;;;4898757;29;20047;-85
2021/06/24 04:51:22;;;;;;;0.10;0.10;;;;;;;;;;4898657;29;20052;-83
2021/06/24 04:53:48;;;;;;;0.10;0.10;;;;;;;;;;4900004;29;20467;-83
2021/06/24 04:56:14;;;;;;;0.10;0.10;;;;;;;;;;4899730;29;20041;-83
2021/06/24 04:58:45;;;;;;;0.10;0.10;;;;;;;;;;4913488;29;20040;-83
2021/06/24 05:01:11;;;;;;;0.10;0.10;;;;;;;;;;4914256;29;20037;-84
2021/06/24 05:03:37;;;;;;;0.10;0.10;;;;;;;;;;4914287;29;20041;-83
2021/06/24 05:06:05;;;;;;;0.10;0.10;;;;;;;;;;4914305;29;20044;-83
2021/06/24 05:08:33;;;;;;;0.10;0.10;;;;;;;;;;4898529;29;20048;-82
2021/06/24 05:10:59;;;;;;;0.10;0.10;;;;;;;;;;4898337;29;20080;-82
2021/06/24 05:13:25;;;;;;;0.10;0.10;;;;;;;;;;4899356;29;20061;-82
2021/06/24 05:15:51;;;;;;;0.10;0.10;;;;;;;;;;4899352;29;20044;-82
2021/06/24 05:18:17;;;;;;;0.13;0.13;;;;;;;;;;4899017;29;20049;-82
2021/06/24 05:20:44;;;;;;;0.10;0.10;;;;;;;;;;4899373;29;20099;-84
2021/06/24 05:23:11;;;;;;;0.10;0.10;;;;;;;;;;4913759;29;20484;-85
2021/06/24 05:25:39;;;;;;;0.10;0.10;;;;;;;;;;4898211;29;20048;-88
2021/06/24 05:28:05;;;;;;;0.17;0.17;;;;;;;;;;4913463;29;20033;-88
2021/06/24 05:30:31;;;;;;;0.10;0.10;;;;;;;;;;4897990;29;20047;-86
2021/06/24 05:32:59;;;;;;;0.10;0.10;;;;;;;;;;4913482;29;20157;-86
2021/06/24 05:35:25;;;;;;;0.10;0.10;;;;;;;;;;4899120;29;20068;-86
2021/06/24 05:37:51;;;;;;;0.10;0.10;;;;;;;;;;4913408;29;20052;-86
2021/06/24 05:40:17;;;;;;;0.10;0.10;;;;;;;;;;4898945;29;20040;-86
2021/06/24 05:42:43;;;;;;;0.10;0.10;;;;;;;;;;4897323;29;20149;-86
2021/06/24 05:45:09;;;;;;;0.10;0.10;;;;;;;;;;4913107;29;20052;-86
2021/06/24 05:47:35;;;;;;;0.10;0.10;;;;;;;;;;4897762;29;20092;-86
2021/06/24 05:50:02;;;;;;;0.10;0.10;;;;;;;;;;4897551;29;20048;-85
2021/06/24 05:52:28;;;;;;;0.10;0.10;;;;;;;;;;4897576;29;20064;-86
2021/06/24 05:54:54;;;;;;;0.10;0.10;;;;;;;;;;4912950;29;20427;-86
2021/06/24 05:57:20;;;;;;;0.20;0.20;;;;;;;;;;4897504;29;20052;-86
2021/06/24 05:59:48;;;;;;;0.10;0.10;;;;;;;;;;4897641;29;20036;-86
2021/06/24 06:02:14;;;;;;;0.15;0.15;;;;;;;;;;4897526;29;20071;-85
2021/06/24 06:04:40;;;;;;;0.10;0.10;;;;;;;;;;4912974;29;20036;-86
2021/06/24 06:07:06;;;;;;;0.10;0.10;;;;;;;;;;4897227;29;20123;-86
2021/06/24 06:09:35;;;;;;;0.10;0.10;;;;;;;;;;4898401;29;20517;-86
2021/06/24 06:12:03;;;;;;;0.20;0.20;;;;;;;;;;4912618;29;20048;-86
2021/06/24 06:14:30;;;;;;;0.10;0.10;;;;;;;;;;4898441;29;20060;-85
2021/06/24 06:16:56;;;;;;;0.10;0.10;;;;;;;;;;4896974;29;20049;-87
2021/06/24 06:19:22;;;;;;;0.10;0.10;;;;;;;;;;4896957;29;20088;-87
2021/06/24 06:21:48;;;;;;;0.10;0.10;;;;;;;;;;4898480;29;20123;-87
2021/06/24 06:24:14;;;;;;;0.10;0.10;;;;;;;;;;4896970;29;20119;-87
2021/06/24 06:26:40;;;;;;;0.10;0.10;;;;;;;;;;4912807;29;20056;-87
2021/06/24 06:29:06;;;;;;;0.10;0.10;;;;;;;;;;4897084;29;20127;-87
2021/06/24 06:31:32;;;;;;;0.10;0.10;;;;;;;;;;4912612;29;20128;-86
2021/06/24 06:33:59;;;;;;;0.10;0.10;;;;;;;;;;4896699;29;20080;-87
2021/06/24 06:36:27;;;;;;;0.10;0.10;;;;;;;;;;4912197;29;20089;-87
2021/06/24 06:38:53;;;;;;;0.10;0.10;;;;;;;;;;4897951;29;20051;-85
2021/06/24 06:41:19;;;;;;;0.10;0.10;;;;;;;;;;4912320;29;20040;-86
2021/06/24 06:43:45;;;;;;;0.10;0.10;;;;;;;;;;4897872;29;20040;-86
2021/06/24 06:46:12;;;;;;;0.10;0.10;;;;;;;;;;4912311;29;20048;-86
2021/06/24 06:48:38;;;;;;;0.10;0.10;;;;;;;;;;4896504;29;20040;-87
2021/06/24 06:51:04;;;;;;;0.10;0.10;;;;;;;;;;4912112;29;20068;-87
2021/06/24 06:53:30;;;;;;;0.25;0.25;;;;;;;;;;4912127;29;20239;-87
2021/06/24 06:55:56;;;;;;;0.10;0.10;;;;;;;;;;4911210;29;20047;-91
2021/06/24 06:58:22;;;;;;;0.10;0.10;;;;;;;;;;4896590;29;20048;-90
2021/06/24 07:00:48;;;;;;;0.10;0.10;;;;;;;;;;4912231;29;20045;-91
2021/06/24 07:03:14;;;;;;;0.10;0.10;;;;;;;;;;4912078;29;20040;-88
2021/06/24 07:05:41;;;;;;;0.10;0.10;;;;;;;;;;4911933;29;20108;-89
2021/06/24 07:08:07;;;;;;;0.40;0.40;;;;;;;;;;4911823;29;20135;-89
2021/06/24 07:10:33;;;;;;;0.10;0.10;;;;;;;;;;4911846;29;20531;-89
2021/06/24 07:12:59;;;;;;;0.10;0.10;;;;;;;;;;4911872;29;20040;-88
2021/06/24 07:15:25;;;;;;;0.20;0.20;;;;;;;;;;4897171;29;20041;-89
2021/06/24 07:17:51;;;;;;;0.10;0.10;;;;;;;;;;4897060;29;20109;-89
2021/06/24 07:20:17;;;;;;;0.10;0.10;;;;;;;;;;4895821;29;20041;-90
2021/06/24 07:22:43;;;;;;;0.20;0.20;;;;;;;;;;4896000;29;20041;-90
2021/06/24 07:25:10;;;;;;;0.13;0.13;;;;;;;;;;4905067;29;20045;-89
2021/06/24 07:27:36;;;;;;;0.10;0.10;;;;;;;;;;4876330;29;20072;-89
2021/06/24 07:30:02;;;;;;;0.20;0.20;;;;;;;;;;4889130;29;20047;-89
2021/06/24 07:32:28;;;;;;;0.10;0.10;;;;;;;;;;4895827;29;20074;-89
2021/06/24 07:34:56;;;;;;;0.10;0.10;;;;;;;;;;4894498;29;20056;-88
2021/06/24 07:37:22;;;;;;;0.10;0.10;;;;;;;;;;4880066;29;20064;-90
2021/06/24 07:39:48;;;;;;;0.15;0.15;;;;;;;;;;4880119;29;20123;-89
2021/06/24 07:42:16;;;;;;;0.10;0.10;;;;;;;;;;4895747;29;20404;-88
2021/06/24 07:44:42;;;;;;;0.20;0.20;;;;;;;;;;4880209;29;20494;-89
2021/06/24 07:47:08;;;;;;;0.20;0.20;;;;;;;;;;4895467;29;20041;-88
2021/06/24 07:49:34;;;;;;;0.10;0.10;;;;;;;;;;4879966;29;20041;-89
2021/06/24 07:52:00;;;;;;;0.10;0.10;;;;;;;;;;4895497;29;20048;-89
2021/06/24 07:54:26;;;;;;;0.17;0.17;;;;;;;;;;4895445;29;20044;-88
2021/06/24 07:56:54;;;;;;;0.20;0.20;;;;;;;;;;4895483;29;20053;-87
2021/06/24 07:59:23;;;;;;;0.20;0.20;;;;;;;;;;4895137;29;20095;-88
2021/06/24 08:01:49;;;;;;;0.10;0.10;;;;;;;;;;4895252;29;20084;-89
2021/06/24 08:04:15;;;;;;;0.10;0.10;;;;;;;;;;4895296;29;20084;-88
2021/06/24 08:06:41;;;;;;;0.10;0.10;;;;;;;;;;4880156;29;20558;-92
2021/06/24 08:09:10;;;;;;;0.20;0.20;;;;;;;;;;4864061;29;20045;-88
2021/06/24 08:11:36;;;;;;;0.20;0.20;;;;;;;;;;4895084;29;20051;-87
2021/06/24 08:14:02;;;;;;;0.10;0.10;;;;;;;;;;4910775;29;20036;-87
2021/06/24 08:16:29;;;;;;;0.38;0.38;;;;;;;;;;4911396;29;20044;-93
2021/06/24 08:18:55;;;;;;;0.10;0.10;;;;;;;;;;4879982;29;20414;-91
2021/06/24 08:21:21;;;;;;;0.10;0.10;;;;;;;;;;4873877;29;20053;-88
2021/06/24 08:23:47;;;;;;;0.10;0.10;;;;;;;;;;4880350;29;20115;-92
2021/06/24 08:26:13;;;;;;;0.20;0.20;;;;;;;;;;4876141;29;20189;-91
2021/06/24 08:28:39;;;;;;;0.15;0.15;;;;;;;;;;4877421;29;20264;-91
2021/06/24 08:31:06;;;;;;;0.10;0.10;;;;;;;;;;4877215;29;20040;-92
2021/06/24 08:33:32;;;;;;;0.10;0.10;;;;;;;;;;4864138;29;20052;-90
2021/06/24 08:36:00;;;;;;;0.10;0.10;;;;;;;;;;4880134;29;20044;-92
2021/06/24 08:38:26;;;;;;;0.20;0.20;;;;;;;;;;4880667;29;20340;-90
2021/06/24 08:40:52;;;;;;;0.10;0.10;;;;;;;;;;4895380;29;20467;-89
2021/06/24 08:43:18;;;;;;;0.10;0.10;;;;;;;;;;4895049;29;20197;-87
2021/06/24 08:45:44;;;;;;;0.10;0.10;;;;;;;;;;4895032;29;20462;-88
2021/06/24 08:48:13;;;;;;;0.20;0.20;;;;;;;;;;4894884;29;20052;-89
2021/06/24 08:50:41;;;;;;;0.15;0.15;;;;;;;;;;4895012;29;20043;-88
2021/06/24 08:53:07;;;;;;;0.17;0.17;;;;;;;;;;4879921;29;20406;-88
2021/06/24 08:55:40;;;;;;;0.10;0.10;;;;;;;;;;4879406;29;20066;-88
2021/06/24 08:58:07;;;;;;;0.10;0.10;;;;;;;;;;4894960;29;20071;-88
2021/06/24 09:00:33;;;;;;;0.10;0.10;;;;;;;;;;4894625;29;20047;-88
2021/06/24 09:02:59;;;;;;;0.20;0.20;;;;;;;;;;4894937;29;20044;-88
2021/06/24 09:05:25;;;;;;;0.30;0.30;;;;;;;;;;4894654;29;20486;-88
2021/06/24 09:07:52;;;;;;;0.20;0.20;;;;;;;;;;4894683;29;20064;-88
2021/06/24 09:10:19;;;;;;;0.20;0.20;;;;;;;;;;4879480;29;20372;-88
2021/06/24 09:12:54;;;;;;;0.10;0.10;;;;;;;;;;4894782;29;20044;-88
2021/06/24 09:15:20;;;;;;;0.20;0.20;;;;;;;;;;4895843;29;20100;-88
2021/06/24 09:17:47;;;;;;;0.20;0.20;;;;;;;;;;4879268;29;20143;-88
2021/06/24 09:20:19;;;;;;;0.20;0.20;;;;;;;;;;4898035;29;20120;-88
2021/06/24 09:23:04;;;;;;;0.10;0.10;;;;;;;;;;4899543;29;20105;-88
2021/06/24 09:25:30;;;;;;;0.10;0.10;;;;;;;;;;4899313;29;20053;-87
2021/06/24 09:27:56;;;;;;;0.10;0.10;;;;;;;;;;4897969;29;20041;-88
2021/06/24 09:30:28;;;;;;;0.10;0.10;;;;;;;;;;4898037;29;20041;-87
2021/06/24 09:32:54;;;;;;;0.20;0.20;;;;;;;;;;4897973;29;20148;-89
2021/06/24 09:35:20;;;;;;;0.10;0.10;;;;;;;;;;4882970;29;20066;-89
2021/06/24 09:38:07;;;;;;;0.10;0.10;;;;;;;;;;4897946;29;20049;-90
2021/06/24 09:40:42;;;;;;;0.20;0.20;;;;;;;;;;4882939;29;20044;-92
2021/06/24 09:43:08;;;;;;;0.10;0.10;;;;;;;;;;4898477;29;20123;-92
2021/06/24 09:45:34;;;;;;;0.10;0.10;;;;;;;;;;4895676;29;20044;-90
2021/06/24 09:48:07;;;;;;;0.20;0.20;;;;;;;;;;4911843;29;20044;-92
2021/06/24 09:50:33;;;;;;;0.10;0.10;;;;;;;;;;4898658;29;20047;-88
2021/06/24 09:53:12;;;;;;;0.10;0.10;;;;;;;;;;4897816;29;20048;-88
2021/06/24 09:55:38;;;;;;;0.10;0.10;;;;;;;;;;4897530;29;20531;-88
2021/06/24 09:58:11;;;;;;;0.20;0.20;;;;;;;;;;4913010;29;20044;-90
2021/06/24 10:00:37;;;;;;;0.10;0.10;;;;;;;;;;4913194;29;20048;-91
2021/06/24 10:03:12;;;;;;;0.20;0.20;;;;;;;;;;4897446;29;20509;-89
2021/06/24 10:05:40;;;;;;;0.10;0.10;;;;;;;;;;4897385;29;20486;-90
2021/06/24 10:08:06;;;;;;;0.10;0.10;;;;;;;;;;4897199;29;20064;-90
2021/06/24 10:10:32;;;;;;;0.10;0.10;;;;;;;;;;4913026;29;20052;-88
2021/06/24 10:12:58;;;;;;;0.17;0.17;;;;;;;;;;4897259;29;20096;-87
2021/06/24 10:15:24;;;;;;;0.10;0.10;;;;;;;;;;4898171;29;20482;-86
2021/06/24 10:17:54;;;;;;;0.10;0.10;;;;;;;;;;4898247;29;20513;-87
2021/06/24 10:20:20;;;;;;;0.10;0.10;;;;;;;;;;4912714;29;20048;-87
2021/06/24 10:22:48;;;;;;;0.10;0.10;;;;;;;;;;4897101;29;20036;-87
2021/06/24 10:25:15;;;;;;;0.20;0.20;;;;;;;;;;4897089;29;20056;-87
2021/06/24 10:27:41;;;;;;;0.10;0.10;;;;;;;;;;4896733;29;20144;-87
2021/06/24 10:30:11;;;;;;;0.20;0.20;;;;;;;;;;4912185;29;20048;-87
2021/06/24 10:32:37;;;;;;;0.10;0.10;;;;;;;;;;4912281;29;20116;-87
2021/06/24 10:35:07;;;;;;;0.20;0.20;;;;;;;;;;4896709;29;20057;-86
2021/06/24 10:37:34;;;;;;;0.20;0.20;;;;;;;;;;4912207;29;20460;-86
2021/06/24 10:40:01;;;;;;;0.13;0.13;;;;;;;;;;4896590;29;20414;-85
2021/06/24 10:42:28;;;;;;;0.10;0.10;;;;;;;;;;4912150;29;20125;-87
2021/06/24 10:45:01;;;;;;;0.10;0.10;;;;;;;;;;4911949;29;20101;-88
2021/06/24 10:47:30;;;;;;;0.20;0.20;;;;;;;;;;4912066;29;20041;-87
2021/06/24 10:50:17;;;;;;;0.10;0.10;;;;;;;;;;4896386;29;20392;-86
2021/06/24 10:52:43;;;;;;;0.10;0.10;;;;;;;;;;4893883;29;20494;-87
2021/06/24 10:55:09;;;;;;;0.10;0.10;;;;;;;;;;4911927;29;20432;-87
2021/06/24 10:57:35;;;;;;;0.20;0.20;;;;;;;;;;4911741;29;20131;-87
2021/06/24 11:00:20;;;;;;;0.10;0.10;;;;;;;;;;4896280;29;20072;-87
2021/06/24 11:02:47;;;;;;;0.50;0.25;;;;;;;;;;4897469;29;20112;-87
2021/06/24 11:05:17;;;;;;;0.10;0.10;;;;;;;;;;4896000;29;20049;-90
2021/06/24 11:07:43;;;;;;;0.20;0.20;;;;;;;;;;4896077;29;20109;-88
2021/06/24 11:10:20;;;;;;;0.20;0.20;;;;;;;;;;4896177;29;20047;-88
2021/06/24 11:12:49;;;;;;;1.00;1.00;;;;;;;;;;4896300;29;20139;-88
2021/06/24 11:15:35;;;;;;;0.20;0.20;;;;;;;;;;4897484;29;20144;-87
2021/06/24 11:18:01;;;;;;;0.45;0.45;;;;;;;;;;4895044;29;20162;-86
2021/06/24 11:20:29;;;;;;;0.10;0.10;;;;;;;;;;4911114;29;20136;-86
2021/06/24 11:22:55;;;;;;;0.10;0.10;;;;;;;;;;4911441;29;20144;-87
2021/06/24 11:25:21;;;;;;;0.20;0.20;;;;;;;;;;4895922;29;20566;-88
2021/06/24 11:27:47;;;;;;;0.20;0.20;;;;;;;;;;4911553;29;20120;-87
2021/06/24 11:30:13;;;;;;;0.17;0.17;;;;;;;;;;4896836;29;20459;-88
2021/06/24 11:32:44;;;;;;;0.20;0.20;;;;;;;;;;4911639;29;20041;-91
2021/06/24 11:35:30;;;;;;;0.20;0.20;;;;;;;;;;4895730;29;20051;-88
2021/06/24 11:37:59;;;;;;;0.20;0.20;;;;;;;;;;4897015;29;20434;-88
2021/06/24 11:40:29;;;;;;;0.10;0.10;;;;;;;;;;4911861;29;20044;-89
2021/06/24 11:42:55;;;;;;;0.10;0.10;;;;;;;;;;4895465;29;20069;-89
2021/06/24 11:45:24;;;;;;;0.20;0.20;;;;;;;;;;4911377;29;20053;-90
2021/06/24 11:47:55;;;;;;;0.30;0.30;;;;;;;;;;4895432;29;20047;-89
2021/06/24 12:04:15;;;;;;;0.10;0.10;;;;;;;;;;4896584;29;20450;-88
2021/06/24 12:06:48;;;;;;;0.20;0.20;;;;;;;;;;4895181;29;20083;-88
2021/06/24 12:09:19;;;;;;;0.20;0.20;;;;;;;;;;4895186;29;20067;-87
2021/06/24 12:11:45;;;;;;;0.20;0.20;;;;;;;;;;4910364;29;20045;-87
2021/06/24 12:14:15;;;;;;;0.10;0.10;;;;;;;;;;4895036;29;20047;-87
2021/06/24 12:16:42;;;;;;;0.85;0.20;;;;;;;;;;4910605;29;20052;-87
2021/06/24 12:19:08;;;;;;;0.10;0.10;;;;;;;;;;4894851;29;20620;-86
2021/06/24 12:21:34;;;;;;;0.10;0.10;;;;;;;;;;4894973;29;20036;-87
2021/06/24 12:24:00;;;;;;;0.10;0.10;;;;;;;;;;4895318;29;20060;-87
2021/06/24 12:26:26;;;;;;;0.10;0.10;;;;;;;;;;4896356;29;20505;-86
2021/06/24 12:28:55;;;;;;;0.10;0.10;;;;;;;;;;4910535;29;20045;-87
2021/06/24 12:31:22;;;;;;;0.20;0.20;;;;;;;;;;4910428;29;20040;-87
2021/06/24 12:33:49;;;;;;;0.10;0.10;;;;;;;;;;4910512;29;20037;-87
2021/06/24 12:36:15;;;;;;;0.10;0.10;;;;;;;;;;4894746;29;20518;-87
2021/06/24 12:38:44;;;;;;;0.20;0.20;;;;;;;;;;4896172;29;20045;-87
2021/06/24 12:41:17;;;;;;;0.10;0.10;;;;;;;;;;4910178;29;20499;-87
2021/06/24 12:43:44;;;;;;;0.20;0.20;;;;;;;;;;4894727;29;20044;-86
2021/06/24 12:46:10;;;;;;;0.20;0.20;;;;;;;;;;4910323;29;20079;-88
2021/06/24 12:48:40;;;;;;;0.10;0.10;;;;;;;;;;4910410;29;20075;-88
2021/06/24 12:51:15;;;;;;;0.30;0.30;;;;;;;;;;4910630;29;20071;-88
2021/06/24 12:53:44;;;;;;;0.28;0.28;;;;;;;;;;4897231;29;20115;-84
2021/06/24 12:56:26;;;;;;;0.20;0.20;;;;;;;;;;4913763;29;20045;-85
2021/06/24 12:59:06;;;;;;;0.20;0.20;;;;;;;;;;4899416;29;20048;-85
2021/06/24 13:01:36;;;;;;;0.20;0.20;;;;;;;;;;4913805;29;20116;-85
2021/06/24 13:04:10;;;;;;;0.20;0.20;;;;;;;;;;4913835;29;20117;-85
2021/06/24 13:06:40;;;;;;;0.20;0.20;;;;;;;;;;4913594;29;20048;-86
2021/06/24 13:09:12;;;;;;;0.10;0.10;;;;;;;;;;4913702;29;20044;-87
2021/06/24 13:11:43;;;;;;;0.20;0.20;;;;;;;;;;4913488;29;20036;-86
2021/06/24 13:14:15;;;;;;;0.10;0.10;;;;;;;;;;4899177;29;20044;-85
2021/06/24 13:16:47;;;;;;;0.20;0.20;;;;;;;;;;4897651;29;20042;-85
2021/06/24 13:19:25;;;;;;;0.20;0.20;;;;;;;;;;4898862;29;20112;-87
2021/06/24 13:21:51;;;;;;;0.10;0.10;;;;;;;;;;4897641;29;20617;-85
2021/06/24 13:24:18;;;;;;;0.20;0.20;;;;;;;;;;4898913;29;20036;-87
2021/06/24 13:26:44;;;;;;;0.20;0.20;;;;;;;;;;4913301;29;20051;-84
2021/06/24 13:29:20;;;;;;;0.20;0.20;;;;;;;;;;4913231;29;20041;-85
2021/06/24 13:31:47;;;;;;;0.20;0.20;;;;;;;;;;4898850;29;20410;-85
2021/06/24 13:34:14;;;;;;;0.10;0.10;;;;;;;;;;4898753;29;20514;-85
2021/06/24 13:36:40;;;;;;;0.10;0.10;;;;;;;;;;4913078;29;20127;-85
2021/06/24 13:39:07;;;;;;;0.30;0.30;;;;;;;;;;4898729;29;20447;-85
2021/06/24 13:41:36;;;;;;;0.10;0.10;;;;;;;;;;4912651;29;20075;-88
2021/06/24 13:44:03;;;;;;;0.20;0.20;;;;;;;;;;4897667;29;20061;-85
2021/06/24 13:46:29;;;;;;;0.10;0.10;;;;;;;;;;4898689;29;20063;-85
2021/06/24 13:48:55;;;;;;;0.10;0.10;;;;;;;;;;4913043;29;20051;-85
2021/06/24 13:51:21;;;;;;;0.13;0.13;;;;;;;;;;4912961;29;20041;-86
2021/06/24 13:53:47;;;;;;;0.10;0.10;;;;;;;;;;4912763;29;20036;-86
2021/06/24 13:56:13;;;;;;;0.10;0.10;;;;;;;;;;4898276;29;20407;-86
2021/06/24 13:58:39;;;;;;;0.20;0.20;;;;;;;;;;4898274;29;20120;-86
2021/06/24 14:01:05;;;;;;;0.10;0.10;;;;;;;;;;4898494;29;20501;-86
2021/06/24 14:03:34;;;;;;;0.20;0.20;;;;;;;;;;4896955;29;20195;-85
2021/06/24 14:06:00;;;;;;;0.20;0.20;;;;;;;;;;4896451;29;20037;-86
2021/06/24 14:08:26;;;;;;;0.20;0.20;;;;;;;;;;4912573;29;20060;-86
2021/06/24 14:10:52;;;;;;;0.10;0.10;;;;;;;;;;4912444;29;20471;-84
2021/06/24 14:13:18;;;;;;;0.17;0.17;;;;;;;;;;4898209;29;20044;-84
2021/06/24 14:15:44;;;;;;;0.10;0.10;;;;;;;;;;4898084;29;20048;-85
2021/06/24 14:18:11;;;;;;;0.20;0.20;;;;;;;;;;4912287;29;20049;-84
2021/06/24 14:20:37;;;;;;;0.15;0.15;;;;;;;;;;4897965;29;20076;-84
2021/06/24 14:23:03;;;;;;;0.10;0.10;;;;;;;;;;4898081;29;20040;-84
2021/06/24 14:25:29;;;;;;;0.13;0.13;;;;;;;;;;4896645;29;20147;-84
2021/06/24 14:27:55;;;;;;;0.20;0.20;;;;;;;;;;4896932;29;20451;-85
2021/06/24 14:30:21;;;;;;;0.20;0.20;;;;;;;;;;4896368;29;20060;-86
2021/06/24 14:32:47;;;;;;;0.10;0.10;;;;;;;;;;4896690;29;20135;-85
2021/06/24 14:35:14;;;;;;;0.20;0.20;;;;;;;;;;4912149;29;20070;-84
2021/06/24 14:37:40;;;;;;;0.20;0.20;;;;;;;;;;4912041;29;20040;-90
2021/06/24 14:40:06;;;;;;;0.20;0.20;;;;;;;;;;4896185;29;20079;-86
2021/06/24 14:42:34;;;;;;;0.20;0.20;;;;;;;;;;4911825;29;20075;-85
2021/06/24 14:45:01;;;;;;;0.13;0.13;;;;;;;;;;4911952;29;20043;-86
2021/06/24 14:47:27;;;;;;;0.20;0.20;;;;;;;;;;4896248;29;20044;-86
2021/06/24 14:49:53;;;;;;;0.20;0.20;;;;;;;;;;4905528;29;20044;-85
2021/06/24 14:52:19;;;;;;;0.10;0.10;;;;;;;;;;4898590;29;20060;-86
2021/06/24 14:54:45;;;;;;;0.55;0.55;;;;;;;;;;4897165;29;20156;-85
2021/06/24 14:57:11;;;;;;;0.20;0.20;;;;;;;;;;4895941;29;20044;-86